Date,TemperatureHighF,TemperatureAvgF,TemperatureLowF,DewpointHighF,DewpointAvgF,DewpointLowF,HumidityHigh,HumidityAvg,HumidityLow,PressureMaxIn,PressureMinIn,WindSpeedMaxMPH,WindSpeedAvgMPH,GustSpeedMaxMPH,PrecipitationSumIn
2013-2-5,64.9,56.0,52.5,51.8,49.3,47.8,89,79,60,29.41,29.29,3,0,6,0.00
2013-2-6,68.4,56.0,45.9,49.5,47.4,44.3,95,75,47,29.42,29.30,3,0,7,0.00
2013-2-7,66.4,52.3,41.0,49.4,44.9,40.7,99,78,53,29.44,29.28,5,0,8,0.00
2013-2-8,58.8,46.6,32.0,99.9,39.6,34.7,97,77,46,29.28,29.17,20,2,20,0.20
2013-2-9,62.2,46.8,34.0,43.8,36.2,31.5,99,71,33,29.41,29.23,8,2,8,0.01
2013-2-10,61.2,47.2,36.7,43.3,38.7,34.6,97,74,48,29.41,29.31,7,2,7,0.00
2013-2-11,69.4,49.4,35.4,42.4,32.0,18.6,97,59,15,29.54,29.36,10,2,10,0.00
2013-2-12,69.4,49.9,35.2,35.1,29.0,18.6,75,51,15,29.64,29.53,8,2,8,0.00
2013-2-13,74.5,54.9,32.0,99.9,33.2,21.0,77,49,14,29.56,29.44,7,2,7,0.00
2013-2-14,79.9,57.4,39.2,41.1,35.3,29.4,77,49,17,29.50,29.36,7,2,7,0.00
2013-2-15,84.9,63.9,47.3,40.6,31.7,23.3,65,35,12,29.50,29.43,9,2,9,0.00
2013-2-16,86.7,63.2,45.3,35.7,27.2,18.4,50,29,12,29.48,29.28,9,2,9,0.00
2013-2-17,73.8,56.7,42.4,50.4,38.7,25.7,88,54,24,29.33,29.22,8,3,8,0.00
2013-2-18,68.7,55.4,46.9,47.0,45.1,41.7,92,70,41,29.37,29.25,9,3,9,0.00
2013-2-19,53.2,49.8,43.7,46.1,41.8,39.5,94,75,63,29.29,29.02,11,2,11,0.13
2013-2-20,68.6,51.9,36.3,42.4,30.8,20.2,95,52,19,29.25,29.00,15,5,15,0.01
2013-2-21,65.5,54.0,39.6,42.3,37.0,31.4,89,55,28,29.39,29.27,10,2,10,0.00
2013-2-22,72.0,52.2,36.5,39.1,32.1,22.3,79,52,16,29.50,29.39,10,2,10,0.00
2013-2-23,69.6,52.9,38.5,46.7,38.6,28.2,86,62,29,29.47,29.23,11,2,11,0.00
2013-2-24,71.6,57.0,32.0,99.9,23.9,13.0,57,29,15,29.50,29.28,15,3,15,0.00
2013-2-25,74.5,50.0,38.3,33.7,24.6,18.1,57,40,13,29.52,29.37,10,1,10,0.00
2013-2-26,77.7,55.5,32.0,99.9,30.7,21.0,77,42,14,29.48,29.28,9,1,9,0.00
2013-2-27,80.8,53.5,42.3,41.7,29.5,18.0,60,43,14,29.58,0.00,8,1,8,0.00
2013-2-28,82.6,60.8,44.8,30.2,23.0,17.2,44,26,12,29.62,29.54,8,1,8,0.00
2013-3-1,90.0,67.8,49.1,33.8,28.2,23.2,43,25,11,29.62,29.45,8,2,8,0.00
2013-3-2,88.5,67.1,51.3,40.6,31.9,27.0,49,30,12,29.53,29.38,9,2,9,0.00
2013-3-3,75.0,61.1,52.9,52.2,43.8,31.7,89,55,26,29.42,29.28,9,2,9,0.00
2013-3-4,73.2,59.0,49.8,51.8,49.6,47.5,93,73,44,29.41,29.32,8,2,8,0.00
2013-3-5,69.3,55.8,49.1,53.6,49.1,46.4,96,79,53,29.43,29.32,12,2,12,0.00
2013-3-6,67.3,55.5,48.2,48.4,45.0,41.3,88,70,44,29.45,29.32,10,2,10,0.00
2013-3-7,62.1,54.2,50.4,52.0,46.9,31.4,97,78,49,29.40,29.14,9,2,9,0.17
2013-3-8,59.0,49.9,43.0,48.2,44.7,40.6,98,83,54,29.32,29.08,8,2,8,0.70
2013-3-9,68.7,54.7,42.4,48.7,43.8,39.3,97,70,37,29.52,29.32,16,2,16,0.00
2013-3-10,74.8,57.9,41.4,46.5,40.4,32.1,95,59,24,29.56,29.44,9,2,9,0.00
2013-3-11,82.6,60.3,42.8,45.8,38.1,25.3,78,51,14,29.49,29.35,8,2,8,0.00
2013-3-12,86.7,64.1,45.3,48.0,41.0,36.1,78,48,18,29.40,29.31,7,2,7,0.00
2013-3-13,94.8,69.9,51.8,51.8,42.2,34.8,65,42,14,29.43,29.32,8,2,8,0.00
2013-3-14,95.4,69.3,50.9,53.9,48.6,36.4,79,54,13,29.40,29.30,8,2,8,0.00
2013-3-15,84.4,64.5,51.8,56.2,52.0,48.1,91,67,33,29.35,29.24,10,2,10,0.00
2013-3-16,74.7,58.8,51.1,53.6,51.1,48.6,95,78,44,29.28,29.18,11,3,11,0.00
2013-3-17,71.4,58.6,49.1,53.2,50.6,47.7,96,77,50,29.30,29.23,11,3,11,0.00
2013-3-18,71.4,58.6,51.1,52.7,50.6,48.1,93,76,50,29.39,29.28,8,2,8,0.00
2013-3-19,73.2,57.2,46.9,54.5,50.4,46.7,99,80,49,29.45,29.34,9,2,9,0.00
2013-3-20,75.6,61.0,50.9,55.2,51.9,49.2,97,75,44,29.41,29.26,6,1,6,0.00
2013-3-21,77.4,60.9,50.0,53.3,50.4,46.0,96,72,42,29.27,29.11,8,3,8,0.00
2013-3-22,75.6,60.4,48.7,54.0,48.5,40.8,93,67,44,29.23,29.11,9,3,9,0.00
2013-3-23,77.7,59.7,45.1,52.4,48.1,42.0,97,69,34,29.31,29.21,9,2,9,0.00
2013-3-24,81.5,62.3,47.1,52.9,48.4,38.8,99,67,22,29.33,29.19,13,2,13,0.00
2013-3-25,81.1,63.1,48.2,54.1,48.8,41.7,92,64,31,29.28,29.19,9,2,9,0.00
2013-3-26,75.7,60.9,50.4,54.6,51.0,46.6,97,73,42,29.28,29.20,12,3,12,0.00
2013-3-27,73.6,57.9,51.4,52.9,51.0,49.3,94,80,43,29.31,29.23,11,2,11,0.00
2013-3-28,80.8,62.6,50.2,56.0,52.6,49.1,98,74,38,29.41,29.31,5,1,8,0.00
2013-3-29,80.8,62.7,53.2,55.7,53.1,50.8,95,74,39,29.43,29.33,5,1,7,0.00
2013-3-30,76.3,63.6,53.4,52.8,50.2,47.2,91,64,43,29.42,29.36,4,2,7,0.00
2013-3-31,68.2,59.2,53.4,57.7,52.9,47.9,91,80,62,29.44,29.36,9,2,9,0.00
2013-4-1,71.1,57.9,48.4,53.6,49.7,46.7,96,75,44,29.47,29.37,9,2,9,0.00
2013-4-2,76.3,60.3,48.4,54.0,51.1,47.3,99,75,44,29.40,29.29,10,2,10,0.00
2013-4-3,82.2,59.9,49.1,55.9,51.5,48.2,98,78,35,29.39,29.33,9,2,9,0.00
2013-4-4,77.0,67.3,56.7,56.3,54.1,52.4,86,64,47,29.42,29.30,24,4,9,0.00
2013-4-5,75.7,63.0,55.6,56.9,54.1,51.9,89,74,50,29.39,29.30,12,3,12,0.00
2013-4-6,75.6,62.1,53.1,55.1,52.9,49.9,95,74,47,29.39,29.26,10,3,10,0.00
2013-4-7,76.1,61.2,50.0,55.9,52.2,48.5,97,75,47,29.28,29.12,10,3,11,0.00
2013-4-8,73.0,62.2,55.2,53.6,40.3,25.5,90,52,20,29.14,28.97,18,5,18,0.00
2013-4-9,85.3,64.9,50.5,36.6,30.1,21.9,52,30,12,29.32,29.13,13,3,13,0.00
2013-4-10,85.1,69.4,52.2,43.8,33.0,23.5,63,29,14,29.40,29.28,11,3,11,0.00
2013-4-11,77.7,60.4,49.1,52.6,45.8,36.4,85,60,36,29.31,29.09,8,2,8,0.00
2013-4-12,77.0,62.4,54.3,54.1,51.9,50.0,88,71,45,29.20,29.08,10,3,10,0.00
2013-4-13,70.2,59.0,52.0,55.0,52.6,49.7,94,80,56,29.22,29.14,10,3,10,0.00
2013-4-14,67.1,57.4,53.1,52.0,50.4,48.9,92,78,56,29.19,29.12,8,2,8,0.00
2013-4-15,67.5,57.6,52.5,54.2,50.5,44.6,96,78,57,29.20,29.13,13,3,13,0.06
2013-4-16,75.2,60.6,46.4,46.4,32.3,18.1,91,43,13,29.30,29.17,17,4,17,0.00
2013-4-17,80.4,62.4,45.1,29.9,26.0,19.1,53,28,13,29.43,29.30,13,3,13,0.00
2013-4-18,83.5,66.4,50.7,33.8,23.4,15.9,39,21,11,29.50,29.42,13,3,13,0.00
2013-4-19,90.0,68.3,49.1,37.1,28.9,23.5,44,26,11,29.47,29.28,12,2,12,0.00
2013-4-20,92.1,70.0,51.1,50.2,43.8,29.1,72,44,11,29.30,29.19,10,3,11,0.00
2013-4-21,88.0,68.6,53.2,55.1,49.0,41.7,88,55,22,29.32,29.24,11,3,11,0.00
2013-4-22,79.0,64.4,56.8,55.6,53.1,50.0,88,70,39,29.32,29.20,12,4,12,0.00
2013-4-23,81.0,64.7,55.9,53.3,51.4,49.1,88,65,34,29.28,29.16,10,3,11,0.00
2013-4-24,61.7,58.9,56.1,54.2,52.6,49.7,88,80,71,29.29,29.22,4,1,7,0.00
2013-4-25,76.1,63.3,54.1,51.6,49.0,45.1,81,62,36,29.42,29.26,10,2,10,0.00
2013-4-26,80.6,62.3,49.1,51.9,49.0,45.6,89,65,35,29.46,29.39,10,2,10,0.00
2013-4-27,81.3,65.7,51.4,57.1,52.6,47.8,90,66,39,29.46,29.29,10,3,10,0.00
2013-4-28,71.6,57.1,53.2,57.7,53.6,51.3,97,88,62,29.33,29.28,6,1,6,0.00
2013-4-29,79.7,63.8,57.2,56.6,54.0,52.4,86,72,45,29.18,29.09,8,2,9,0.00
2013-4-30,79.7,64.2,57.9,55.2,53.7,52.6,86,70,42,29.31,29.13,5,1,7,0.00
2013-5-1,92.8,68.1,51.4,56.8,51.1,34.9,97,63,14,29.43,29.27,3,1,7,0.00
2013-5-2,98.1,78.3,57.6,53.0,29.0,20.4,78,17,11,29.38,29.16,3,1,5,0.00
2013-5-3,97.9,82.6,64.4,38.2,31.2,21.5,30,16,11,29.16,29.10,13,3,13,0.00
2013-5-4,79.5,66.3,54.5,56.6,50.2,29.5,85,58,26,29.16,29.05,14,4,14,0.00
2013-5-5,68.2,60.9,55.8,52.7,50.9,40.2,89,70,53,29.35,29.13,17,7,17,0.00
2013-5-6,67.1,59.5,54.9,58.0,53.7,48.6,98,82,57,29.33,29.20,8,3,8,0.38
2013-5-7,73.8,61.4,53.2,57.4,51.8,47.7,99,73,44,29.37,29.29,9,2,9,0.20
2013-5-8,74.1,63.0,54.3,54.9,50.8,47.0,90,67,42,29.40,29.36,9,2,9,0.00
2013-5-9,78.3,63.0,50.7,56.3,52.3,48.4,95,71,44,29.41,29.32,9,3,9,0.01
2013-5-10,81.7,66.8,53.6,59.9,56.7,52.8,98,73,45,29.40,29.30,8,3,8,0.00
2013-5-11,93.0,72.6,56.1,63.2,58.7,54.7,97,67,34,29.39,29.28,10,2,10,0.00
2013-5-12,100.9,79.8,60.3,62.5,56.5,38.6,86,51,15,29.37,29.22,8,2,8,0.00
2013-5-13,103.1,83.9,65.3,59.6,49.8,33.0,67,36,11,29.29,29.18,10,3,10,0.00
2013-5-14,82.8,70.0,60.3,57.7,52.7,41.9,80,56,30,29.31,29.21,12,4,12,0.13
2013-5-15,78.1,65.5,55.9,57.0,54.4,51.3,91,69,46,29.35,29.25,10,3,10,0.00
2013-5-16,74.5,64.3,57.6,57.3,54.7,53.1,86,72,52,29.29,29.20,9,3,9,0.00
2013-5-17,75.7,65.8,58.8,58.3,55.1,53.4,83,69,51,29.31,29.21,13,3,13,0.00
2013-5-18,86.0,66.3,57.2,57.2,54.4,43.9,88,67,47,29.42,29.27,13,3,13,0.00
2013-5-19,79.0,66.3,54.0,58.6,55.2,50.3,91,69,46,29.30,29.18,10,4,10,0.00
2013-5-20,88.7,70.4,55.8,60.4,56.9,53.2,93,66,32,29.26,29.19,10,3,11,0.00
2013-5-21,83.5,69.3,61.0,61.6,59.1,56.8,89,73,44,29.26,29.14,13,4,13,0.00
2013-5-22,77.0,66.8,60.8,58.6,55.8,47.6,90,69,49,29.17,29.08,13,4,13,0.00
2013-5-23,62.1,60.7,58.8,55.4,53.3,48.7,85,77,62,29.17,29.13,4,2,5,0.00
2013-5-24,74.3,63.7,54.3,55.5,52.6,50.5,88,69,48,29.33,29.23,5,1,7,0.00
2013-5-25,75.4,63.9,53.2,56.2,52.7,49.5,90,69,47,29.35,29.27,5,1,9,0.00
2013-5-26,77.7,64.9,54.7,57.4,54.1,50.9,91,70,49,29.33,29.20,7,1,14,0.00
2013-5-27,78.8,66.8,57.7,58.9,56.3,53.9,89,71,47,29.20,29.09,6,2,7,0.00
2013-5-28,80.6,74.8,63.9,59.3,55.2,38.9,83,53,26,29.10,29.04,13,5,13,0.00
2013-5-29,84.9,70.7,58.6,61.6,57.8,54.7,93,67,38,29.12,29.01,14,4,14,0.00
2013-5-30,83.1,70.0,58.6,61.2,59.1,46.3,94,71,45,29.34,29.08,13,4,13,0.00
2013-5-31,83.5,69.9,62.6,60.8,59.2,57.5,87,71,45,29.23,29.12,9,3,9,0.00
2013-6-1,88.3,70.9,59.5,63.9,60.4,57.5,95,72,42,29.18,29.06,14,4,14,0.00
2013-6-2,79.5,68.6,61.9,62.5,59.7,56.7,91,74,52,29.14,29.08,13,4,13,0.00
2013-6-3,79.0,67.1,61.7,59.2,56.8,55.3,81,71,48,29.21,29.11,13,4,13,0.00
2013-6-4,77.7,66.8,60.6,58.4,56.8,55.9,87,72,49,29.28,29.19,9,4,9,0.00
2013-6-5,78.3,66.0,58.5,59.2,56.7,54.7,90,73,51,29.31,29.21,12,4,12,0.00
2013-6-6,77.0,64.9,56.7,60.2,57.4,55.0,95,78,54,29.26,29.17,12,3,12,0.00
2013-6-7,78.3,65.9,59.4,60.8,57.9,56.1,90,77,55,29.23,29.09,12,4,12,0.00
2013-6-8,80.1,67.7,61.0,60.4,58.4,56.9,87,74,49,29.22,29.10,31,4,32,0.00
2013-6-9,80.1,67.5,60.6,60.3,57.9,55.9,86,73,50,29.24,29.17,15,4,15,0.00
2013-6-10,79.0,67.9,61.0,57.6,55.7,53.6,86,67,43,29.27,29.20,13,4,13,0.00
2013-6-11,86.4,70.1,57.0,61.5,57.8,48.7,95,68,36,29.42,29.19,10,3,10,0.00
2013-6-12,78.6,67.5,61.7,61.5,59.0,57.0,91,75,55,29.33,29.24,11,4,11,0.00
2013-6-13,80.8,68.2,61.2,59.8,57.9,52.3,87,72,47,29.32,29.20,13,4,13,0.00
2013-6-14,80.2,65.9,56.8,59.2,57.1,54.9,95,76,47,29.24,29.15,9,2,9,0.00
2013-6-15,78.4,67.7,59.9,58.1,56.4,55.1,89,69,47,29.28,29.20,13,4,13,0.00
2013-6-16,81.7,68.1,59.0,58.3,56.4,55.1,91,69,43,29.35,29.25,11,4,11,0.00
2013-6-17,83.3,68.1,56.3,60.0,57.1,53.7,95,71,42,29.29,29.20,12,4,12,0.00
2013-6-18,83.3,68.7,57.7,61.0,57.1,53.1,95,69,43,29.23,29.14,11,4,11,0.00
2013-6-19,81.0,68.9,56.5,58.1,54.6,51.6,88,63,43,29.18,29.10,10,3,10,0.00
2013-6-20,83.7,70.0,56.8,60.0,53.7,47.1,90,59,32,29.33,29.11,13,3,13,0.00
2013-6-21,83.1,71.2,57.4,59.3,54.7,48.1,84,58,35,29.22,29.15,10,3,10,0.00
2013-6-22,82.2,74.0,61.7,59.9,57.7,54.0,86,58,44,29.22,29.12,7,2,13,0.00
2013-6-23,77.7,67.8,61.9,59.2,57.7,51.3,87,71,50,29.39,29.10,10,2,13,0.00
2013-6-24,76.1,67.1,61.9,59.2,57.8,56.8,86,73,55,29.25,29.14,5,1,12,0.00
2013-6-25,79.2,69.1,60.8,62.2,60.0,47.8,93,74,54,29.37,29.21,8,1,12,0.00
2013-6-26,89.1,70.1,61.0,64.0,60.9,58.6,93,76,43,29.29,29.24,6,1,10,0.00
2013-6-27,88.1,88.1,88.1,63.4,63.4,63.4,44,44,44,29.26,29.26,0,0,0,0.00
2013-6-28,88.1,88.1,88.1,63.4,63.4,63.4,44,44,44,29.26,29.26,0,0,0,0.00
2013-6-29,88.1,88.1,88.1,63.4,63.4,63.4,44,44,44,29.26,29.26,0,0,0,0.00
2013-7-2,88.1,88.1,88.1,63.4,63.4,63.4,44,44,44,29.26,29.26,0,0,0,0.00
2013-7-6,88.1,88.1,88.1,63.4,63.4,63.4,44,44,44,29.26,29.26,0,0,0,0.00
2013-7-7,88.9,72.7,60.6,64.3,61.2,57.8,92,70,42,29.23,29.08,6,2,10,0.00
2013-7-8,92.7,77.3,64.0,64.7,60.8,55.2,80,59,37,29.30,29.16,6,1,8,0.00
2013-7-9,88.3,76.2,66.9,64.3,62.2,59.2,84,64,44,29.29,29.22,7,2,11,0.00
2013-7-10,81.5,76.4,71.4,65.1,62.4,58.1,77,63,46,29.27,29.21,3,1,11,0.00
2013-7-11,77.7,72.2,67.6,68.4,65.9,28.5,96,81,66,29.42,29.21,4,1,7,0.06
2013-7-12,88.7,73.9,64.6,67.3,63.2,57.6,95,72,45,29.25,29.16,52,2,52,0.00
2013-7-13,99.3,71.5,59.9,63.4,60.7,52.5,96,72,40,29.27,29.16,8,2,11,0.19
2013-7-14,88.3,73.1,61.0,63.4,59.7,55.8,93,66,38,29.25,29.13,8,1,11,0.00
2013-7-15,90.9,74.5,62.6,63.3,58.1,51.4,87,60,33,29.31,29.10,6,1,9,0.00
2013-7-16,89.1,72.1,56.7,55.6,51.8,42.8,87,54,22,29.30,29.18,6,1,10,0.00
2013-7-17,91.9,74.3,56.8,53.3,48.5,38.0,74,45,16,29.33,29.22,6,1,9,0.00
2013-7-18,87.6,72.1,58.5,62.4,56.0,51.2,82,59,36,29.30,29.16,6,2,10,0.00
2013-7-19,86.2,71.8,59.9,62.6,59.4,55.7,87,67,45,29.22,29.13,8,2,12,0.00
2013-7-20,84.6,70.7,63.9,64.9,62.1,59.3,88,76,50,29.21,29.10,8,2,13,0.00
2013-7-21,73.6,67.6,65.1,64.0,62.4,61.5,89,84,71,29.20,29.12,5,1,9,0.00
2013-7-22,86.9,73.3,64.0,64.2,61.7,60.1,91,69,46,29.33,29.24,6,2,10,0.00
2013-7-23,84.2,71.8,61.3,62.6,60.5,58.1,94,71,45,29.29,29.23,6,2,8,0.00
2013-7-24,84.9,69.9,60.3,62.8,59.9,58.1,94,73,47,29.29,29.20,6,2,10,0.00
2013-7-25,84.6,73.8,65.5,62.7,60.1,58.8,80,64,48,29.33,29.24,6,2,11,0.00
2013-7-26,84.7,71.9,63.3,64.6,61.9,59.1,90,72,50,29.40,29.28,7,1,11,0.01
2013-7-27,84.9,71.6,62.1,63.4,60.6,54.0,90,70,47,29.33,29.18,8,2,13,0.01
2013-7-28,79.9,67.7,60.4,63.0,59.6,57.4,93,77,54,29.24,29.17,8,2,13,0.00
2013-7-29,81.3,69.5,62.1,60.1,58.0,56.3,88,69,45,29.35,29.23,8,2,13,0.00
2013-7-30,81.5,68.2,58.3,60.9,57.6,55.3,94,71,45,29.43,29.33,6,2,12,0.00
2013-7-31,78.1,66.0,59.0,59.9,57.4,54.5,94,75,53,29.41,29.30,6,1,13,0.00
2013-8-1,79.5,66.8,59.4,59.3,57.5,56.0,90,74,48,29.34,29.21,7,1,13,0.00
2013-8-2,82.1,68.7,58.7,60.6,58.6,55.8,93,73,46,29.29,29.21,6,1,11,0.00
2013-8-3,84.6,69.2,59.5,61.6,59.4,57.5,96,74,45,29.31,29.23,6,2,13,0.00
2013-8-4,82.6,68.3,58.1,61.9,58.8,56.7,96,75,44,29.33,29.23,7,2,13,0.00
2013-8-5,86.7,68.3,55.9,60.7,56.9,50.6,99,72,32,29.31,29.23,6,1,10,0.00
2013-8-6,82.1,68.5,58.3,59.5,57.0,51.0,94,70,35,29.34,29.28,6,2,12,0.00
2013-8-7,82.1,67.7,58.1,59.8,57.3,53.7,96,72,42,29.39,29.28,6,1,11,0.00
2013-8-8,82.8,67.7,56.7,60.5,57.3,55.3,97,73,43,29.31,29.21,7,2,11,0.07
2013-8-9,81.3,67.5,57.2,59.0,57.2,55.4,96,72,43,29.28,29.22,6,1,12,0.00
2013-8-10,80.8,67.8,57.4,60.0,57.6,55.5,95,72,47,29.34,29.26,5,1,14,0.01
2013-8-11,84.4,67.7,56.3,60.8,57.6,51.8,97,74,36,29.30,29.19,6,1,10,0.08
2013-8-12,85.5,69.1,58.3,61.9,59.0,56.8,96,73,44,29.28,29.19,6,1,10,0.00
2013-8-13,87.3,71.1,58.8,62.7,60.2,57.3,95,72,43,29.29,29.17,6,1,9,0.00
2013-8-14,90.5,71.4,60.6,63.8,61.0,58.6,95,73,41,29.24,29.13,8,2,13,0.08
2013-8-15,90.9,73.6,60.4,63.9,60.4,51.8,96,68,27,29.26,29.18,8,2,13,0.00
2013-8-16,90.7,75.5,59.5,63.7,59.1,52.0,88,61,30,29.27,29.18,8,1,11,0.08
2013-8-17,90.9,74.4,57.0,62.4,57.4,51.2,83,58,27,29.29,29.12,7,2,10,0.08
2013-8-18,86.9,71.9,60.3,62.9,60.0,55.9,88,69,43,29.22,29.12,8,2,13,0.00
2013-8-19,85.3,71.2,63.3,64.6,61.7,59.9,90,74,47,29.25,29.16,7,2,13,0.00
2013-8-20,87.3,71.4,60.6,63.8,60.6,57.3,97,72,39,29.25,29.15,100,2,100,0.00
2013-8-21,90.9,74.6,59.9,63.1,57.9,52.4,91,61,31,29.23,29.13,7,1,11,0.00
2013-8-22,95.2,78.2,61.7,59.4,54.3,39.4,80,49,16,29.24,29.11,6,1,8,0.00
2013-8-23,94.8,75.7,60.8,57.9,54.2,48.8,79,51,24,29.19,29.06,7,1,10,0.00
2013-8-24,89.6,72.2,57.9,60.1,55.2,47.6,84,59,25,29.20,29.08,8,1,11,0.08
2013-8-25,92.1,74.1,58.6,62.4,53.3,48.0,83,52,24,29.24,29.16,6,1,9,0.00
2013-8-26,94.1,80.0,65.3,65.2,56.0,48.1,58,45,33,29.24,29.13,8,1,12,0.00
2013-8-27,91.4,77.1,71.2,62.8,58.1,51.7,66,53,37,29.17,29.11,7,1,13,0.00
2013-8-28,90.9,90.9,90.9,61.7,61.7,61.7,38,38,38,29.13,29.13,0,0,0,0.00
2013-8-29,90.9,90.9,90.9,61.7,61.7,61.7,38,38,38,29.13,29.13,0,0,0,0.00
2013-8-31,90.9,90.9,90.9,61.7,61.7,61.7,38,38,38,29.13,29.13,0,0,0,0.00
2013-9-1,90.9,90.9,90.9,61.7,61.7,61.7,38,38,38,29.13,29.13,0,0,0,0.00
2013-9-4,90.9,90.9,90.9,61.7,61.7,61.7,38,38,38,29.13,29.13,0,0,0,0.00
2013-9-5,90.9,90.9,90.9,61.7,61.7,61.7,38,38,38,29.13,29.13,0,0,0,0.00
2013-9-6,101.7,87.7,74.3,61.7,54.3,44.4,55,35,15,29.16,29.09,3,1,7,0.00
2013-9-7,101.5,82.2,69.3,62.6,56.5,48.0,68,45,22,29.19,29.10,7,1,10,0.00
2013-9-8,89.6,75.2,64.4,62.2,57.7,54.0,81,57,33,29.17,29.07,7,2,11,0.00
2013-9-9,84.0,70.4,62.2,62.1,59.5,55.2,87,71,41,29.13,29.06,7,2,12,0.00
2013-9-10,82.8,67.6,50.0,61.8,58.4,33.1,97,76,45,29.23,29.12,8,2,13,0.00
2013-9-11,81.1,71.3,62.6,60.4,59.4,58.4,87,68,46,29.26,29.23,5,2,8,0.00
2013-9-12,90.9,71.9,57.6,61.4,57.5,44.6,96,66,21,29.25,29.11,6,1,9,0.08
2013-9-13,90.1,74.0,60.3,61.5,56.5,52.1,80,57,30,29.16,28.98,8,1,10,0.00
2013-9-14,92.5,76.3,63.0,63.3,57.5,54.1,76,55,29,29.17,28.95,8,1,10,0.08
2013-9-15,96.3,76.9,62.4,63.0,59.3,56.1,82,58,32,29.10,29.01,7,1,9,0.00
2013-9-16,99.5,77.7,62.6,62.6,57.6,39.8,81,55,14,29.14,29.04,5,1,8,0.00
2013-9-17,85.1,68.7,58.5,63.3,59.6,55.8,93,74,45,29.14,29.03,8,2,12,0.00
2013-9-18,80.8,68.0,61.0,60.7,59.4,56.6,95,76,46,29.13,29.06,8,1,10,0.00
2013-9-19,83.8,68.1,58.1,62.6,60.0,57.0,98,77,48,29.15,29.06,8,1,11,0.00
2013-9-20,75.0,67.2,63.1,62.5,60.9,59.7,89,81,65,29.20,29.13,7,1,11,0.00
2013-9-21,79.0,67.3,59.9,60.5,58.9,56.0,93,76,48,29.23,29.10,7,1,10,0.00
2013-9-22,78.6,65.9,54.0,59.3,53.4,41.7,97,69,28,29.16,29.10,8,1,14,0.00
2013-9-23,95.7,73.8,54.5,65.0,45.3,33.2,81,45,13,29.21,29.08,7,1,10,0.08
2013-9-24,91.2,73.0,58.1,52.5,47.0,39.4,64,43,21,29.25,29.15,7,1,10,0.00
2013-9-25,79.2,67.8,57.0,59.8,55.7,47.5,86,66,48,29.17,29.01,9,2,13,0.00
2013-9-26,81.5,67.4,57.4,54.9,41.1,7.4,84,44,13,29.20,29.04,8,2,20,0.17
2013-9-27,87.4,67.2,52.5,62.2,37.9,28.8,63,37,16,29.31,29.12,6,1,11,0.08
2013-9-28,91.6,71.3,54.1,39.9,31.8,23.5,50,27,11,29.35,29.27,8,1,11,0.00
2013-9-29,89.6,70.6,53.8,48.6,37.5,28.9,53,33,12,29.39,29.28,8,1,13,0.00
2013-9-30,85.1,69.0,54.3,58.1,46.8,37.0,71,48,21,29.31,29.08,7,1,12,0.17
2013-10-1,86.7,69.1,55.2,60.0,55.7,49.4,87,65,32,29.25,29.17,8,1,10,0.08
2013-10-2,79.2,66.8,61.7,59.6,58.2,55.0,91,75,45,29.29,29.18,7,1,10,0.00
2013-10-3,75.9,65.5,58.6,60.6,57.7,55.4,95,78,54,29.24,29.13,8,1,10,0.00
2013-10-4,91.2,73.5,57.7,58.9,42.5,21.3,93,46,11,29.36,29.20,7,1,13,0.00
2013-10-5,92.1,77.8,63.0,37.7,26.8,18.1,24,16,11,29.43,29.34,9,2,18,0.00
2013-10-6,95.5,73.7,56.7,38.5,27.9,19.8,32,19,11,29.41,29.27,6,1,9,0.00
2013-10-7,87.3,69.7,57.7,53.2,37.2,25.3,74,35,13,29.30,29.21,7,1,11,0.00
2013-10-8,75.7,63.4,52.3,56.5,53.2,42.8,89,71,45,29.25,29.12,8,2,13,0.00
2013-10-9,62.1,58.1,51.3,56.1,50.4,45.8,90,76,60,29.14,29.01,6,1,10,0.08
2013-10-10,70.5,56.9,46.0,51.1,47.1,41.0,99,73,36,29.33,29.11,7,1,11,0.01
2013-10-11,78.1,60.9,47.7,51.8,48.5,45.8,96,68,34,29.35,29.24,6,1,9,0.00
2013-10-12,78.8,62.6,50.0,56.1,50.4,44.8,93,68,37,29.28,29.19,6,1,10,0.00
2013-10-13,73.0,62.7,54.9,56.1,53.0,49.1,92,72,46,29.33,29.24,7,1,11,0.00
2013-10-14,86.9,66.6,49.5,55.9,44.4,31.2,99,55,14,29.33,29.21,8,1,9,0.12
2013-10-15,87.3,70.2,54.9,41.3,34.4,25.3,48,30,13,29.29,29.18,5,1,9,0.00
2013-10-16,87.8,68.9,53.1,37.6,31.5,23.3,53,28,12,29.39,29.29,6,1,10,0.12
2013-10-17,85.8,63.7,51.8,45.3,35.8,27.8,53,39,14,29.35,29.23,7,1,11,0.00
2013-10-18,90.0,67.5,51.3,52.9,43.6,33.2,66,46,17,29.32,29.23,5,1,8,0.00
2013-10-19,90.1,69.1,54.0,52.5,40.8,28.1,62,40,11,29.34,29.25,7,1,10,0.00
2013-10-20,79.9,63.8,51.1,56.8,49.2,39.2,90,61,37,29.29,29.20,7,1,12,0.00
2013-10-21,80.2,62.9,50.4,56.3,52.8,46.8,99,74,35,29.29,29.20,5,1,8,0.00
2013-10-22,79.3,62.6,50.0,57.7,52.6,45.2,95,73,43,29.31,29.20,5,1,8,0.00
2013-10-23,72.9,61.0,54.0,57.4,55.5,53.0,99,84,55,29.28,29.20,6,1,9,0.00
2013-10-24,73.2,62.3,54.3,56.6,54.7,52.5,94,77,52,29.36,29.25,6,1,8,0.11
2013-10-25,76.5,61.6,51.4,58.1,55.2,51.2,99,82,52,29.43,29.31,5,1,8,0.00
2013-10-26,84.4,64.5,51.8,59.7,55.3,50.7,99,76,34,29.39,29.26,6,1,8,0.11
2013-10-27,75.7,61.1,51.3,59.5,54.0,46.8,88,78,54,29.30,29.12,7,2,12,0.11
2013-10-28,67.8,58.8,54.1,54.7,50.1,45.1,92,74,47,29.24,29.12,8,2,16,0.01
2013-10-29,64.8,55.4,46.6,51.2,47.4,44.5,95,76,50,29.31,29.23,4,0,7,0.00
2013-10-30,72.7,57.0,44.8,51.0,46.1,41.5,99,71,34,29.37,29.28,7,1,10,0.00
2013-10-31,82.8,61.8,46.4,46.9,40.1,27.5,84,52,14,29.40,29.29,7,1,9,0.00
2013-11-1,88.7,66.8,49.8,41.0,35.6,28.9,64,37,12,29.42,29.25,6,1,8,0.00
2013-11-2,85.5,66.1,52.9,55.5,39.0,28.4,87,42,14,29.31,29.18,6,1,11,0.00
2013-11-3,72.5,62.1,54.5,55.8,53.3,50.3,91,74,47,29.24,29.13,7,1,11,0.00
2013-11-4,70.3,60.1,51.3,56.3,52.5,49.1,95,77,50,29.25,29.11,7,1,10,0.00
2013-11-5,78.8,60.1,45.9,52.1,39.4,23.8,99,55,14,29.45,29.25,8,1,13,0.00
2013-11-6,84.2,63.4,45.9,34.5,26.8,18.2,52,29,11,29.52,29.23,4,1,8,0.11
2013-11-7,88.0,66.8,52.5,36.6,27.5,17.9,40,24,12,29.44,29.30,4,1,5,0.00
2013-11-8,81.3,63.8,49.8,52.7,37.7,25.6,80,43,13,29.35,29.24,5,1,8,0.00
2013-11-9,79.3,60.8,46.2,48.7,43.7,27.2,90,60,15,29.39,29.29,6,1,10,0.00
2013-11-10,85.5,61.8,47.8,54.6,40.4,24.5,72,51,12,29.43,29.33,6,1,9,0.00
2013-11-11,83.5,62.7,47.3,50.7,42.0,30.5,82,53,17,29.44,29.33,4,1,7,0.00
2013-11-12,79.0,64.6,52.5,52.6,45.7,38.8,75,52,33,29.47,29.18,4,0,6,0.11
2013-11-13,95.4,73.2,56.3,89.5,34.8,23.3,97,28,12,29.38,29.20,4,1,7,0.00
2013-11-14,92.8,72.6,59.7,47.9,33.3,25.3,54,26,11,29.25,29.08,5,1,8,0.00
2013-11-15,70.7,62.1,56.7,56.2,53.5,42.8,89,75,48,29.08,28.99,6,1,13,0.00
2013-11-16,64.9,59.1,52.5,55.0,51.0,46.8,91,75,56,29.25,29.06,6,1,10,0.00
2013-11-17,70.3,58.8,49.6,52.4,50.1,46.8,96,75,45,29.40,29.25,7,1,11,0.00
2013-11-18,88.9,57.9,47.5,54.2,50.9,46.3,99,79,34,29.46,29.16,6,0,9,0.32
2013-11-19,67.3,59.1,52.3,53.3,51.8,49.4,92,77,58,29.40,29.25,6,1,10,0.00
2013-11-20,73.9,58.6,53.4,55.7,53.3,47.8,94,83,64,29.28,29.15,5,1,8,0.14
2013-11-21,95.7,58.1,51.1,59.8,55.2,48.5,99,90,65,29.19,29.13,6,1,12,0.34
2013-11-22,71.2,57.1,50.7,50.4,38.3,34.3,96,51,35,29.36,29.13,9,3,21,0.00
2013-11-23,66.7,54.6,46.6,53.9,40.2,35.6,88,61,35,29.39,29.25,4,1,7,0.00
2013-11-24,69.1,54.5,44.8,45.8,41.7,39.3,86,65,35,29.50,29.37,6,1,8,0.00
2013-11-25,73.2,56.4,43.9,46.0,42.3,36.1,86,63,28,29.54,29.45,5,1,8,0.00
2013-11-26,78.6,60.3,46.6,44.6,39.9,30.5,84,52,18,29.50,29.34,4,1,6,0.00
2013-11-27,77.0,60.8,50.9,45.9,40.0,33.0,69,49,21,29.36,29.19,7,1,8,0.00
2013-11-28,71.8,57.5,48.0,46.6,42.5,33.7,75,60,27,29.36,25.53,117,1,15,0.00
2013-11-29,61.9,55.7,50.9,58.1,52.0,44.5,99,88,70,29.49,29.35,6,0,10,0.15
2013-11-30,78.6,59.9,47.8,52.4,47.9,42.6,99,70,29,29.49,29.37,4,1,7,0.00
2013-12-1,81.3,62.1,49.5,45.1,38.4,27.0,71,46,15,29.53,25.67,117,1,117,0.00
2013-12-2,76.5,58.8,48.2,43.1,36.1,27.0,65,46,18,29.44,29.22,3,1,6,0.00
2013-12-3,66.4,55.1,43.2,53.1,45.9,37.0,84,72,56,29.23,29.05,7,2,11,0.00
2013-12-4,63.1,50.8,41.5,43.1,32.4,20.8,86,52,23,29.26,29.07,7,1,9,0.00
2013-12-5,61.2,47.4,37.2,37.0,33.8,24.3,88,63,25,29.41,29.25,5,1,10,0.00
2013-12-6,73.8,47.8,36.1,41.2,37.5,31.5,89,69,44,29.47,29.25,5,1,8,0.00
2013-12-7,69.4,46.4,37.9,48.6,42.0,31.0,93,84,76,29.41,29.02,8,1,13,0.05
2013-12-8,58.3,44.5,34.2,38.4,33.3,27.6,82,66,44,29.50,29.38,7,1,12,0.00
2013-12-9,62.6,45.0,33.6,31.8,22.4,10.6,76,44,20,29.59,29.48,4,1,10,0.00
2013-12-10,87.3,48.0,34.9,20.1,15.8,10.1,46,29,14,29.57,29.13,4,1,6,0.00
2013-12-11,74.7,52.6,36.7,25.5,19.4,15.2,45,30,12,29.48,29.40,5,1,9,0.00
2013-12-12,71.1,54.5,42.8,47.9,32.3,18.6,93,49,15,29.51,29.42,5,1,8,0.00
2013-12-13,67.5,51.0,38.1,45.7,41.3,37.6,98,73,35,29.52,29.42,5,1,7,0.00
2013-12-14,75.0,55.6,42.1,41.0,30.7,20.4,83,45,14,29.59,29.47,5,1,8,0.00
2013-12-15,82.0,60.1,43.9,40.3,27.2,21.1,50,31,12,29.55,29.40,4,1,6,0.00
2013-12-16,87.6,65.8,52.0,39.0,29.1,23.0,43,27,12,29.45,29.36,3,1,5,0.00
2013-12-17,85.8,68.3,56.1,44.9,34.2,25.3,46,31,14,29.44,29.32,2,1,4,0.00
2013-12-18,75.2,61.9,55.0,54.6,47.9,35.8,94,63,29,29.32,29.16,5,1,9,0.00
2013-12-19,55.4,50.4,43.5,51.9,47.2,43.0,99,89,75,29.16,29.02,4,1,8,0.69
2013-12-20,65.5,50.4,40.5,51.6,43.6,38.2,99,81,37,29.25,29.06,4,1,8,0.01
2013-12-21,62.4,49.9,40.6,49.1,45.1,40.4,99,85,56,29.39,29.23,6,0,8,0.00
2013-12-22,72.9,53.7,41.4,50.3,45.3,38.0,99,77,29,29.56,29.39,4,1,8,0.00
2013-12-23,76.8,57.9,45.3,46.4,40.8,33.0,87,58,24,29.62,29.37,5,1,8,0.00
2013-12-24,81.0,61.1,47.7,43.4,37.2,28.4,70,46,15,29.51,29.39,5,1,6,0.00
2013-12-25,82.6,62.9,50.2,54.9,28.5,15.6,81,31,12,29.51,29.20,4,1,7,0.00
2013-12-26,81.0,61.2,48.7,29.8,21.8,15.9,39,23,11,29.48,29.37,4,1,8,0.00
2013-12-27,86.2,62.2,46.2,31.2,22.9,18.2,36,24,11,29.47,29.34,4,1,8,0.00
2013-12-28,88.9,59.8,47.7,41.0,29.7,21.6,62,35,15,29.35,29.23,7,1,8,0.00
2013-12-29,76.5,57.5,44.2,35.6,28.7,19.2,69,38,14,29.46,29.30,5,1,9,0.00
2013-12-30,75.9,57.2,44.6,31.8,23.2,15.5,42,29,13,29.57,29.45,4,1,6,0.00
2013-12-31,74.5,55.9,42.8,37.3,29.0,18.1,65,40,13,29.50,29.38,5,1,8,0.00
2014-1-1,77.5,57.1,42.6,45.2,34.5,20.7,72,48,14,29.44,29.34,5,1,8,0.00
2014-1-2,84.2,62.8,49.1,40.2,31.9,24.0,54,34,12,29.42,29.29,4,1,6,0.00